createdAt,value
2023-04-14T00:00:18.858Z,4.08
2023-04-14T00:02:49.189Z,4.12
2023-04-14T00:05:19.851Z,4.16
2023-04-14T00:07:50.078Z,4.22
2023-04-14T00:10:20.184Z,4.26
2023-04-14T00:12:50.748Z,4.31
2023-04-14T00:15:24.083Z,4.34
2023-04-14T00:17:53.209Z,4.38
2023-04-14T00:20:20.902Z,4.40
2023-04-14T00:22:49.131Z,4.42
2023-04-14T00:25:20.294Z,4.44
2023-04-14T00:27:48.965Z,4.45
2023-04-14T00:30:17.414Z,4.47
2023-04-14T00:32:48.774Z,4.46
2023-04-14T00:35:27.736Z,4.45
2023-04-14T00:37:58.732Z,4.45
2023-04-14T00:40:32.734Z,4.45
2023-04-14T00:43:05.872Z,4.47
2023-04-14T00:45:49.831Z,4.46
2023-04-14T00:48:20.606Z,4.42
2023-04-14T00:50:51.112Z,4.42
2023-04-14T00:53:21.813Z,4.44
2023-04-14T00:55:52.013Z,4.46
2023-04-14T00:58:24.940Z,4.48
2023-04-14T01:00:59.093Z,4.51
2023-04-14T01:03:29.381Z,4.53
2023-04-14T01:06:05.518Z,4.54
2023-04-14T01:08:34.211Z,4.55
2023-04-14T01:11:22.489Z,4.58
2023-04-14T01:14:45.124Z,4.62
2023-04-14T01:17:38.139Z,4.64
2023-04-14T01:20:44.883Z,4.67
2023-04-14T01:23:41.071Z,4.69
2023-04-14T01:26:45.948Z,4.71
2023-04-14T01:29:39.402Z,4.71
2023-04-14T01:32:18.620Z,4.73
2023-04-14T01:34:57.804Z,4.74
2023-04-14T01:37:48.697Z,4.75
2023-04-14T01:40:34.186Z,4.76
2023-04-14T01:43:11.637Z,4.78
2023-04-14T01:45:52.713Z,4.79
2023-04-14T01:48:27.025Z,4.81
2023-04-14T01:51:02.546Z,4.82
2023-04-14T01:53:39.129Z,4.83
2023-04-14T01:56:15.348Z,4.87
2023-04-14T01:58:49.504Z,4.89
2023-04-14T02:01:22.955Z,4.88
2023-04-14T02:03:53.975Z,4.91
2023-04-14T02:06:28.679Z,4.90
2023-04-14T02:09:04.973Z,4.92
2023-04-14T02:11:36.805Z,4.92
2023-04-14T02:14:11.612Z,4.93
2023-04-14T02:16:44.836Z,4.93
2023-04-14T02:19:21.843Z,4.95
2023-04-14T02:21:56.935Z,4.96
2023-04-14T02:24:27.509Z,4.97
2023-04-14T02:27:16.426Z,5.00
2023-04-14T02:30:00.396Z,5.02
2023-04-14T02:32:33.744Z,5.05
2023-04-14T02:35:16.944Z,5.07
2023-04-14T02:37:59.243Z,5.11
2023-04-14T02:40:42.533Z,5.15
2023-04-14T02:43:28.710Z,5.16
2023-04-14T02:46:06.118Z,5.18
2023-04-14T02:48:43.107Z,5.20
2023-04-14T02:51:18.214Z,5.22
2023-04-14T02:53:50.624Z,5.23
2023-04-14T02:56:22.435Z,5.25
2023-04-14T02:58:54.181Z,5.28
2023-04-14T03:01:27.555Z,5.29
2023-04-14T03:03:59.545Z,5.35
2023-04-14T03:06:32.056Z,5.38
2023-04-14T03:09:05.244Z,5.41
2023-04-14T03:11:38.365Z,5.44
2023-04-14T03:14:10.176Z,5.48
2023-04-14T03:16:42.972Z,5.49
2023-04-14T03:19:15.707Z,5.52
2023-04-14T03:21:47.490Z,5.60
2023-04-14T03:24:31.132Z,5.77
2023-04-14T03:27:11.030Z,5.77
2023-04-14T03:29:51.387Z,5.73
2023-04-14T03:32:29.517Z,5.71
2023-04-14T03:35:03.181Z,5.67
2023-04-14T03:37:41.486Z,5.65
2023-04-14T03:40:16.538Z,5.64
2023-04-14T03:42:49.967Z,5.67
2023-04-14T03:45:18.388Z,5.68
2023-04-14T03:47:46.960Z,5.71
2023-04-14T03:50:23.272Z,5.73
2023-04-14T03:52:55.289Z,5.73
2023-04-14T03:55:32.090Z,5.73
2023-04-14T03:58:05.583Z,5.83
2023-04-14T04:00:39.701Z,5.80
2023-04-14T04:03:12.480Z,5.79
2023-04-14T04:05:45.096Z,5.80
2023-04-14T04:08:17.018Z,5.81
2023-04-14T04:10:50.028Z,5.83
2023-04-14T04:13:24.025Z,5.84
2023-04-14T04:15:59.594Z,5.86
2023-04-14T04:18:35.713Z,5.90
2023-04-14T04:21:12.349Z,5.92
2023-04-14T04:23:51.526Z,5.92
2023-04-14T04:26:25.400Z,5.90
2023-04-14T04:29:06.618Z,5.90
2023-04-14T04:31:39.957Z,5.90
2023-04-14T04:34:12.246Z,5.88
2023-04-14T04:36:44.693Z,5.85
2023-04-14T04:39:14.957Z,5.86
2023-04-14T04:41:46.049Z,5.85
2023-04-14T04:44:18.938Z,5.85
2023-04-14T04:46:58.835Z,5.85
2023-04-14T04:49:29.633Z,5.86
2023-04-14T04:51:57.540Z,5.86
2023-04-14T04:54:27.291Z,5.86
2023-04-14T04:57:01.620Z,5.87
2023-04-14T04:59:33.181Z,5.90
2023-04-14T05:02:03.318Z,5.91
2023-04-14T05:04:33.574Z,5.95
2023-04-14T05:07:04.212Z,5.96
2023-04-14T05:09:33.802Z,5.98
2023-04-14T05:12:04.171Z,6.01
2023-04-14T05:14:34.445Z,6.03
2023-04-14T05:17:07.010Z,6.05
2023-04-14T05:19:37.204Z,6.08
2023-04-14T05:22:06.682Z,6.10
2023-04-14T05:24:36.396Z,6.13
2023-04-14T05:27:14.240Z,6.14
2023-04-14T05:29:44.791Z,6.17
2023-04-14T05:32:14.854Z,6.21
2023-04-14T05:34:45.348Z,6.24
2023-04-14T05:37:14.994Z,6.28
2023-04-14T05:39:45.181Z,6.34
2023-04-14T05:42:18.842Z,6.35
2023-04-14T05:44:49.136Z,6.38
2023-04-14T05:47:19.153Z,6.40
2023-04-14T05:49:48.392Z,6.45
2023-04-14T05:52:18.267Z,6.48
2023-04-14T05:54:48.029Z,6.55
2023-04-14T05:57:17.759Z,6.59
2023-04-14T05:59:47.640Z,6.64
2023-04-14T06:02:17.595Z,6.68
2023-04-14T06:04:47.891Z,6.73
2023-04-14T06:07:18.240Z,6.79
2023-04-14T06:09:47.987Z,6.84
2023-04-14T06:12:17.808Z,6.90
2023-04-14T06:14:47.949Z,6.96
2023-04-14T06:17:17.778Z,7.03
2023-04-14T06:19:49.255Z,7.11
2023-04-14T06:22:20.035Z,7.16
2023-04-14T06:24:50.136Z,7.19
2023-04-14T06:27:19.876Z,7.18
2023-04-14T06:29:48.245Z,7.20
2023-04-14T06:32:16.748Z,7.22
2023-04-14T06:34:45.869Z,7.26
2023-04-14T06:37:13.812Z,7.31
2023-04-14T06:39:42.113Z,7.32
2023-04-14T06:42:14.983Z,7.37
2023-04-14T06:44:45.099Z,7.40
2023-04-14T06:47:21.112Z,7.43
2023-04-14T06:49:50.421Z,7.46
2023-04-14T06:52:20.583Z,7.47
2023-04-14T06:54:50.639Z,7.49
2023-04-14T06:57:21.037Z,7.56
2023-04-14T06:59:50.938Z,7.62
2023-04-14T07:02:20.537Z,7.59
2023-04-14T07:04:50.296Z,7.63
2023-04-14T07:07:20.125Z,7.73
2023-04-14T07:09:50.064Z,7.80
2023-04-14T07:12:19.958Z,7.87
2023-04-14T07:14:52.724Z,7.93
2023-04-14T07:17:22.809Z,7.98
2023-04-14T07:19:52.998Z,8.12
2023-04-14T07:22:22.759Z,8.21
2023-04-14T07:24:53.899Z,8.27
2023-04-14T07:27:24.562Z,8.32
2023-04-14T07:29:54.334Z,8.40
2023-04-14T07:32:24.602Z,8.45
2023-04-14T07:34:55.268Z,8.51
2023-04-14T07:37:25.109Z,8.60
2023-04-14T07:39:53.255Z,8.59
2023-04-14T07:42:21.466Z,8.58
2023-04-14T07:44:49.962Z,8.68
2023-04-14T07:47:18.234Z,8.62
2023-04-14T07:49:47.097Z,8.70
2023-04-14T07:52:15.128Z,8.66
2023-04-14T07:54:43.427Z,8.60
2023-04-14T07:57:11.962Z,8.52
2023-04-14T07:59:43.098Z,8.43
2023-04-14T08:02:11.956Z,8.50
2023-04-14T08:04:40.298Z,8.46
2023-04-14T08:07:08.823Z,8.42
2023-04-14T08:09:37.123Z,8.40
2023-04-14T08:12:08.640Z,8.43
2023-04-14T08:14:38.909Z,8.46
2023-04-14T08:17:09.101Z,8.28
2023-04-14T08:19:38.869Z,8.04
2023-04-14T08:22:07.910Z,7.90
2023-04-14T08:24:37.657Z,7.77
2023-04-14T08:27:07.122Z,7.92
2023-04-14T08:29:35.690Z,7.95
2023-04-14T08:32:04.979Z,7.95
2023-04-14T08:34:32.282Z,7.96
2023-04-14T08:37:00.832Z,7.94
2023-04-14T08:39:29.317Z,7.91
2023-04-14T08:41:58.556Z,7.91
2023-04-14T08:44:31.086Z,7.95
2023-04-14T08:47:02.416Z,7.99
2023-04-14T08:49:57.155Z,7.98
2023-04-14T08:52:32.290Z,7.91
2023-04-14T08:55:06.051Z,7.99
2023-04-14T08:57:37.694Z,7.92
2023-04-14T09:00:10.818Z,7.80
2023-04-14T09:02:42.599Z,7.83
2023-04-14T09:05:14.516Z,7.81
2023-04-14T09:07:45.343Z,7.72
2023-04-14T09:10:17.173Z,7.75
2023-04-14T09:12:49.022Z,7.81
2023-04-14T09:15:20.816Z,7.78
2023-04-14T09:17:51.394Z,7.84
2023-04-14T09:20:38.501Z,7.77
2023-04-14T09:23:11.044Z,7.65
2023-04-14T09:25:42.627Z,7.66
2023-04-14T09:28:13.236Z,7.75
2023-04-14T09:30:43.935Z,7.81
2023-04-14T09:33:24.311Z,7.58
2023-04-14T09:35:55.489Z,7.47
2023-04-14T09:38:40.635Z,7.60
2023-04-14T09:41:26.230Z,7.40
2023-04-14T09:43:55.819Z,7.41
2023-04-14T09:46:26.137Z,7.44
2023-04-14T09:48:57.878Z,7.42
2023-04-14T09:51:33.500Z,7.52
2023-04-14T09:54:06.870Z,7.64
2023-04-14T09:56:37.430Z,7.55
2023-04-14T09:59:07.264Z,7.60
2023-04-14T10:01:37.543Z,7.61
2023-04-14T10:04:26.758Z,7.66
2023-04-14T10:07:00.732Z,7.61
2023-04-14T10:09:40.993Z,7.62
2023-04-14T10:12:19.479Z,7.55
2023-04-14T10:14:47.153Z,7.64
2023-04-14T10:17:15.562Z,7.53
2023-04-14T10:19:44.030Z,7.63
2023-04-14T10:22:13.104Z,7.59
2023-04-14T10:24:41.874Z,7.54
2023-04-14T10:27:09.282Z,7.45
2023-04-14T10:29:42.337Z,7.49
2023-04-14T10:32:17.722Z,7.54
2023-04-14T10:35:12.403Z,7.51
2023-04-14T10:37:54.312Z,7.46
2023-04-14T10:40:24.818Z,7.46
2023-04-14T10:42:56.605Z,7.64
2023-04-14T10:45:24.515Z,7.52
2023-04-14T10:47:53.268Z,7.43
2023-04-14T10:50:25.275Z,7.38
2023-04-14T10:52:56.962Z,7.34
2023-04-14T10:55:51.668Z,7.42
2023-04-14T10:58:29.881Z,7.34
2023-04-14T11:01:00.090Z,7.42
2023-04-14T11:03:48.318Z,7.44
2023-04-14T11:06:57.300Z,7.54
2023-04-14T11:09:39.626Z,7.49
2023-04-14T11:12:31.604Z,7.43
2023-04-14T11:15:06.388Z,7.37
2023-04-14T11:17:41.896Z,7.38
2023-04-14T11:20:21.209Z,7.30
2023-04-14T11:22:54.253Z,7.21
2023-04-14T11:25:24.595Z,7.12
2023-04-14T11:27:55.245Z,7.14
2023-04-14T11:30:22.887Z,7.11
2023-04-14T11:32:57.968Z,7.11
2023-04-14T11:35:31.452Z,7.13
2023-04-14T11:38:01.988Z,7.12
2023-04-14T11:40:30.750Z,7.12
2023-04-14T11:43:01.960Z,7.12
2023-04-14T11:45:31.987Z,7.09
2023-04-14T11:48:08.625Z,7.12
2023-04-14T11:50:40.064Z,7.17
2023-04-14T11:53:16.538Z,7.17
2023-04-14T11:55:52.199Z,7.22
2023-04-14T11:58:24.997Z,7.28
2023-04-14T12:00:57.824Z,7.22
2023-04-14T12:03:39.560Z,7.21
2023-04-14T12:06:10.428Z,7.23
2023-04-14T12:08:40.615Z,7.21
2023-04-14T12:11:15.801Z,7.22
2023-04-14T12:13:49.366Z,7.18
2023-04-14T12:16:20.094Z,7.24
2023-04-14T12:18:50.264Z,7.33
2023-04-14T12:21:22.968Z,7.16
2023-04-14T12:23:54.951Z,7.17
2023-04-14T12:26:26.347Z,7.10
2023-04-14T12:28:58.381Z,7.09
2023-04-14T12:31:30.200Z,7.04
2023-04-14T12:34:04.226Z,6.98
2023-04-14T12:36:47.823Z,6.87
2023-04-14T12:39:17.803Z,6.84
2023-04-14T12:41:47.035Z,6.89
2023-04-14T12:44:20.943Z,6.91
2023-04-14T12:46:54.041Z,7.03
2023-04-14T12:49:38.979Z,6.98
2023-04-14T12:52:09.190Z,6.91
2023-04-14T12:54:54.125Z,6.88
2023-04-14T12:57:24.316Z,6.92
2023-04-14T12:59:54.436Z,6.82
2023-04-14T13:02:24.881Z,6.89
2023-04-14T13:04:55.576Z,6.98
2023-04-14T13:07:25.773Z,7.14
2023-04-14T13:09:58.236Z,7.10
2023-04-14T13:12:28.452Z,7.13
2023-04-14T13:14:58.970Z,7.11
2023-04-14T13:17:29.578Z,7.27
2023-04-14T13:19:59.880Z,7.32
2023-04-14T13:22:30.059Z,7.37
2023-04-14T13:25:00.784Z,7.44
2023-04-14T13:27:31.163Z,7.48
2023-04-14T13:30:02.333Z,7.53
2023-04-14T13:32:29.928Z,7.40
2023-04-14T13:35:01.022Z,7.26
2023-04-14T13:37:29.519Z,7.22
2023-04-14T13:39:58.468Z,7.17
2023-04-14T13:42:26.733Z,7.16
2023-04-14T13:44:54.762Z,7.18
2023-04-14T13:47:23.792Z,7.28
2023-04-14T13:49:51.672Z,7.14
2023-04-14T13:52:22.990Z,7.11
2023-04-14T13:54:53.193Z,7.13
2023-04-14T13:57:23.328Z,7.16
2023-04-14T13:59:53.534Z,7.17
2023-04-14T14:02:24.183Z,7.14
2023-04-14T14:04:55.069Z,7.17
2023-04-14T14:07:25.411Z,7.15
2023-04-14T14:09:55.715Z,7.22
2023-04-14T14:12:25.884Z,7.18
2023-04-14T14:14:56.077Z,7.25
2023-04-14T14:17:26.256Z,7.36
2023-04-14T14:19:56.467Z,7.29
2023-04-14T14:22:27.014Z,7.30
2023-04-14T14:25:10.816Z,7.33
2023-04-14T14:27:47.790Z,7.28
2023-04-14T14:30:16.105Z,7.20
2023-04-14T14:32:44.463Z,7.22
2023-04-14T14:35:12.845Z,7.21
2023-04-14T14:37:42.926Z,7.24
2023-04-14T14:40:13.274Z,7.33
2023-04-14T14:42:41.285Z,7.23
2023-04-14T14:45:10.595Z,7.26
2023-04-14T14:47:39.112Z,7.23
2023-04-14T14:50:10.339Z,7.24
2023-04-14T14:52:40.577Z,7.13
2023-04-14T14:55:10.870Z,7.23
2023-04-14T14:57:39.082Z,7.23
2023-04-14T15:00:08.982Z,7.29
2023-04-14T15:02:39.224Z,7.26
2023-04-14T15:05:08.280Z,7.08
2023-04-14T15:07:35.762Z,6.97
2023-04-14T15:10:05.695Z,6.95
2023-04-14T15:12:35.978Z,6.99
2023-04-14T15:15:07.847Z,7.12
2023-04-14T15:17:37.993Z,7.03
2023-04-14T15:20:09.114Z,7.00
2023-04-14T15:22:39.332Z,6.99
2023-04-14T15:25:10.138Z,6.90
2023-04-14T15:27:40.460Z,6.88
2023-04-14T15:30:11.460Z,6.85
2023-04-14T15:32:41.864Z,6.88
2023-04-14T15:35:12.012Z,6.94
2023-04-14T15:37:42.375Z,6.96
2023-04-14T15:40:12.885Z,6.81
2023-04-14T15:42:43.003Z,6.83
2023-04-14T15:45:14.507Z,6.75
2023-04-14T15:47:46.410Z,6.84
2023-04-14T15:50:18.918Z,6.81
2023-04-14T15:52:49.867Z,6.81
2023-04-14T15:55:20.417Z,6.81
2023-04-14T15:57:50.979Z,6.72
2023-04-14T16:00:22.786Z,6.80
2023-04-14T16:02:53.142Z,6.80
2023-04-14T16:05:23.359Z,6.88
2023-04-14T16:07:53.258Z,6.88
2023-04-14T16:10:23.511Z,6.84
2023-04-14T16:12:53.763Z,6.74
2023-04-14T16:15:23.611Z,6.75
2023-04-14T16:17:53.440Z,6.76
2023-04-14T16:20:23.861Z,6.83
2023-04-14T16:22:54.321Z,6.85
2023-04-14T16:25:24.421Z,6.79
2023-04-14T16:27:54.624Z,6.78
2023-04-14T16:30:24.232Z,6.81
2023-04-14T16:32:54.074Z,6.83
2023-04-14T16:35:24.175Z,6.71
2023-04-14T16:37:54.306Z,6.71
2023-04-14T16:40:22.764Z,6.72
2023-04-14T16:42:51.299Z,6.78
2023-04-14T16:45:20.366Z,6.77
2023-04-14T16:47:48.026Z,6.79
2023-04-14T16:50:16.582Z,6.72
2023-04-14T16:52:44.790Z,6.71
2023-04-14T16:55:15.835Z,6.67
2023-04-14T16:57:44.681Z,6.75
2023-04-14T17:00:14.281Z,6.73
2023-04-14T17:02:41.691Z,6.75
2023-04-14T17:05:11.302Z,6.77
2023-04-14T17:07:42.675Z,6.76
2023-04-14T17:10:12.716Z,6.78
2023-04-14T17:12:43.227Z,6.79
2023-04-14T17:15:13.376Z,6.81
2023-04-14T17:17:43.450Z,6.76
2023-04-14T17:20:15.561Z,6.78
2023-04-14T17:22:45.186Z,6.71
2023-04-14T17:25:21.995Z,6.69
2023-04-14T17:27:50.066Z,6.69
2023-04-14T17:30:20.711Z,6.69
2023-04-14T17:32:50.778Z,6.66
2023-04-14T17:35:21.545Z,6.66
2023-04-14T17:37:51.688Z,6.61
2023-04-14T17:40:21.649Z,6.67
2023-04-14T17:42:52.179Z,6.62
2023-04-14T17:45:25.870Z,6.62
2023-04-14T17:47:54.186Z,6.59
2023-04-14T17:50:25.672Z,6.64
2023-04-14T17:52:55.744Z,6.57
2023-04-14T17:55:25.145Z,6.56
2023-04-14T17:57:56.297Z,6.56
2023-04-14T18:00:29.405Z,6.50
2023-04-14T18:02:56.969Z,6.49
2023-04-14T18:05:25.505Z,6.45
2023-04-14T18:07:54.580Z,6.42
2023-04-14T18:10:22.483Z,6.40
2023-04-14T18:12:50.983Z,6.41
2023-04-14T18:15:19.974Z,6.48
2023-04-14T18:17:48.064Z,6.47
2023-04-14T18:20:18.827Z,6.43
2023-04-14T18:22:48.369Z,6.42
2023-04-14T18:25:16.986Z,6.43
2023-04-14T18:30:19.534Z,6.48
2023-04-14T18:32:49.776Z,6.47
2023-04-14T18:35:20.099Z,6.51
2023-04-14T18:37:50.491Z,6.47
2023-04-14T18:40:21.196Z,6.47
2023-04-14T18:42:54.327Z,6.45
2023-04-14T18:45:24.497Z,6.42
2023-04-14T18:47:54.759Z,6.45
2023-04-14T18:50:25.512Z,6.45
2023-04-14T18:52:56.050Z,6.46
2023-04-14T18:55:26.211Z,6.43
2023-04-14T18:58:13.176Z,6.46
2023-04-14T19:00:46.589Z,6.50
2023-04-14T19:03:17.270Z,6.47
2023-04-14T19:05:52.209Z,6.54
2023-04-14T19:08:22.574Z,6.48
2023-04-14T19:10:52.824Z,6.46
2023-04-14T19:13:24.220Z,6.45
2023-04-14T19:16:13.536Z,6.48
2023-04-14T19:18:43.447Z,6.57
2023-04-14T19:21:12.462Z,6.49
2023-04-14T19:23:41.133Z,6.46
2023-04-14T19:26:10.489Z,6.50
2023-04-14T19:28:40.443Z,6.46
2023-04-14T19:31:09.802Z,6.46
2023-04-14T19:33:41.907Z,6.49
2023-04-14T19:36:18.621Z,6.49
2023-04-14T19:38:49.230Z,6.44
2023-04-14T19:41:19.684Z,6.45
2023-04-14T19:43:51.075Z,6.47
2023-04-14T19:46:21.870Z,6.47
2023-04-14T19:48:52.398Z,6.51
2023-04-14T19:51:22.564Z,6.47
2023-04-14T19:53:52.820Z,6.49
2023-04-14T19:56:20.530Z,6.51
2023-04-14T19:58:48.238Z,6.50
2023-04-14T20:01:18.476Z,6.47
2023-04-14T20:04:05.102Z,6.51
2023-04-14T20:06:37.204Z,6.51
2023-04-14T20:09:05.761Z,6.51
2023-04-14T20:11:34.020Z,6.64
2023-04-14T20:14:02.605Z,6.66
2023-04-14T20:16:31.306Z,6.63
2023-04-14T20:18:59.561Z,6.66
2023-04-14T20:21:28.325Z,6.83
2023-04-14T20:23:57.845Z,6.83
2023-04-14T20:26:28.753Z,6.77
2023-04-14T20:28:59.511Z,6.81
2023-04-14T20:31:30.956Z,6.98
2023-04-14T20:34:01.217Z,6.91
2023-04-14T20:36:35.683Z,6.83
2023-04-14T20:39:06.386Z,6.87
2023-04-14T20:41:36.677Z,6.81
2023-04-14T20:44:07.580Z,6.85
2023-04-14T20:46:37.931Z,6.83
2023-04-14T20:49:08.129Z,6.81
2023-04-14T20:51:39.647Z,6.87
2023-04-14T20:54:09.748Z,6.83
2023-04-14T20:56:40.250Z,7.04
2023-04-14T20:59:10.453Z,6.96
2023-04-14T21:01:42.772Z,6.98
2023-04-14T21:04:13.126Z,6.96
2023-04-14T21:06:43.812Z,6.88
2023-04-14T21:09:14.704Z,6.89
2023-04-14T21:11:44.827Z,6.84
2023-04-14T21:15:48.019Z,6.82
2023-04-14T21:17:05.183Z,6.80
2023-04-14T21:19:35.355Z,6.86
2023-04-14T21:22:08.246Z,6.85
2023-04-14T21:24:38.375Z,6.80
2023-04-14T21:27:08.501Z,6.75
2023-04-14T21:29:38.638Z,6.83
2023-04-14T21:32:08.733Z,6.87
2023-04-14T21:34:37.437Z,6.83
2023-04-14T21:37:05.763Z,6.84
2023-04-14T21:39:34.083Z,6.83
2023-04-14T21:42:03.898Z,6.82
2023-04-14T21:44:33.874Z,6.88
2023-04-14T21:47:02.272Z,6.86
2023-04-14T21:49:30.731Z,6.83
2023-04-14T21:51:59.173Z,6.98
2023-04-14T21:54:27.806Z,6.90
2023-04-14T21:56:57.055Z,6.88
2023-04-14T21:59:24.458Z,6.87
2023-04-14T22:01:53.032Z,6.81
2023-04-14T22:04:33.069Z,6.83
2023-04-14T22:07:06.621Z,6.86
2023-04-14T22:09:36.800Z,6.89
2023-04-14T22:12:11.591Z,6.92
2023-04-14T22:14:42.162Z,6.90
2023-04-14T22:17:12.348Z,6.85
2023-04-14T22:19:43.343Z,6.87
2023-04-14T22:22:13.535Z,6.89
2023-04-14T22:24:43.823Z,6.90
2023-04-14T22:27:13.959Z,6.92
2023-04-14T22:29:44.128Z,6.93
2023-04-14T22:32:14.310Z,6.92
2023-04-14T22:34:44.497Z,6.92
2023-04-14T22:37:14.817Z,6.83
2023-04-14T22:39:45.146Z,6.81
2023-04-14T22:42:19.554Z,6.85
2023-04-14T22:44:48.241Z,6.84
2023-04-14T22:47:18.153Z,6.93
2023-04-14T22:49:46.827Z,6.88
2023-04-14T22:52:15.069Z,6.84
2023-04-14T22:54:43.394Z,6.79
2023-04-14T22:57:11.861Z,6.81
2023-04-14T22:59:40.323Z,6.80
2023-04-14T23:02:08.701Z,6.80
2023-04-14T23:04:37.722Z,6.79
2023-04-14T23:07:05.822Z,6.79
2023-04-14T23:09:34.070Z,6.77
2023-04-14T23:12:03.039Z,6.76
2023-04-14T23:14:32.519Z,6.80
2023-04-14T23:17:02.789Z,6.79
2023-04-14T23:19:33.807Z,6.84
2023-04-14T23:22:04.579Z,6.87
2023-04-14T23:24:34.719Z,6.84
2023-04-14T23:27:04.989Z,6.84
2023-04-14T23:29:40.078Z,6.78
2023-04-14T23:32:10.528Z,6.76
2023-04-14T23:34:41.228Z,6.77
2023-04-14T23:37:12.728Z,6.80
2023-04-14T23:39:42.949Z,6.79
2023-04-14T23:42:20.193Z,6.79
2023-04-14T23:44:50.324Z,6.71
2023-04-14T23:47:20.645Z,6.84
2023-04-14T23:49:51.392Z,6.79
2023-04-14T23:52:21.983Z,6.77
2023-04-14T23:54:52.307Z,6.78
2023-04-14T23:57:22.639Z,6.78
2023-04-14T23:59:53.044Z,6.78
